Suzuka, Japan
Current Conditions -  °F | °C
As of 1:30 PM on Saturday 25 Oct 2014 (Local Time) from RJGG Reporting Station
Broken Clouds Broken Clouds  
Wind Chill: 68°   Ceiling: 17000
Heat Index: 68°   Visibility: 6mi
Dew Point: 57°   Wind: 8mph
Humidity: 68%   Direction: 290°WNW
Pressure: 30.15"   Gusts: NA
Location:  34.88°N, 136.58°E
Report Text: RJGG 250430Z 29007KT 9999 FEW020 SCT160 BKN170 20/14 Q1021 BECMG 24005KT
Loading
Personal Weather Stations






























Interactive Weather Map
Tropical Storm Tracking
New forecast layout! Learn more

10-Day Weather Forecast

Advertisements
Track Severe Weather on mobile